sensor_id;sensor_type;location;lat;lon;timestamp;pressure;altitude;pressure_sealevel;temperature;humidity
74798;BME280;63326;45.088;7.658;2024-01-10T00:00:37;99738.66;;;1.57;100.00
74798;BME280;63326;45.088;7.658;2024-01-10T00:03:04;99672.78;;;1.15;100.00
74798;BME280;63326;45.088;7.658;2024-01-10T00:05:30;99738.56;;;1.59;100.00
74798;BME280;63326;45.088;7.658;2024-01-10T00:07:58;99673.53;;;1.17;100.00
74798;BME280;63326;45.088;7.658;2024-01-10T00:10:25;99760.06;;;1.67;100.00
74798;BME280;63326;45.088;7.658;2024-01-10T00:12:52;99722.47;;;1.49;100.00
74798;BME280;63326;45.088;7.658;2024-01-10T00:15:18;99709.63;;;1.43;100.00
74798;BME280;63326;45.088;7.658;2024-01-10T00:17:45;99684.34;;;1.26;100.00
74798;BME280;63326;45.088;7.658;2024-01-10T00:20:12;99699.78;;;1.33;100.00
74798;BME280;63326;45.088;7.658;2024-01-10T00:22:39;99680.53;;;1.18;100.00
74798;BME280;63326;45.088;7.658;2024-01-10T00:25:06;99683.69;;;1.23;100.00
74798;BME280;63326;45.088;7.658;2024-01-10T00:27:33;99697.97;;;1.33;100.00
74798;BME280;63326;45.088;7.658;2024-01-10T00:30:00;99677.75;;;1.19;100.00
74798;BME280;63326;45.088;7.658;2024-01-10T00:32:27;99708.78;;;1.30;100.00
74798;BME280;63326;45.088;7.658;2024-01-10T00:34:53;99692.06;;;1.17;100.00
74798;BME280;63326;45.088;7.658;2024-01-10T00:37:23;99686.19;;;0.99;100.00
74798;BME280;63326;45.088;7.658;2024-01-10T00:39:49;99679.31;;;0.96;100.00
74798;BME280;63326;45.088;7.658;2024-01-10T00:42:18;99692.97;;;1.03;100.00
74798;BME280;63326;45.088;7.658;2024-01-10T00:44:48;99719.03;;;1.22;100.00
74798;BME280;63326;45.088;7.658;2024-01-10T00:47:15;99698.69;;;1.10;100.00
74798;BME280;63326;45.088;7.658;2024-01-10T00:49:42;99714.47;;;1.24;100.00
74798;BME280;63326;45.088;7.658;2024-01-10T00:52:09;99742.34;;;1.42;100.00
74798;BME280;63326;45.088;7.658;2024-01-10T00:54:35;99747.63;;;1.42;100.00
74798;BME280;63326;45.088;7.658;2024-01-10T00:57:02;99698.59;;;1.11;100.00
74798;BME280;63326;45.088;7.658;2024-01-10T00:59:35;99674.38;;;1.05;100.00
74798;BME280;63326;45.088;7.658;2024-01-10T01:02:02;99692.47;;;1.23;100.00
74798;BME280;63326;45.088;7.658;2024-01-10T01:04:29;99685.28;;;1.38;100.00
74798;BME280;63326;45.088;7.658;2024-01-10T01:06:58;99663.69;;;1.31;100.00
74798;BME280;63326;45.088;7.658;2024-01-10T01:09:25;99659.34;;;1.30;100.00
74798;BME280;63326;45.088;7.658;2024-01-10T01:11:51;99689.97;;;1.47;100.00
74798;BME280;63326;45.088;7.658;2024-01-10T01:14:23;99661.78;;;1.34;100.00
74798;BME280;63326;45.088;7.658;2024-01-10T01:16:50;99694.28;;;1.61;100.00
74798;BME280;63326;45.088;7.658;2024-01-10T01:19:17;99683.38;;;1.53;100.00
74798;BME280;63326;45.088;7.658;2024-01-10T01:21:46;99667.50;;;1.40;100.00
74798;BME280;63326;45.088;7.658;2024-01-10T01:24:15;99635.75;;;1.15;100.00
74798;BME280;63326;45.088;7.658;2024-01-10T01:26:42;99738.34;;;1.62;100.00
74798;BME280;63326;45.088;7.658;2024-01-10T01:29:09;99725.09;;;1.49;100.00
74798;BME280;63326;45.088;7.658;2024-01-10T01:31:36;99691.94;;;1.18;100.00
74798;BME280;63326;45.088;7.658;2024-01-10T01:34:03;99716.31;;;1.36;100.00
74798;BME280;63326;45.088;7.658;2024-01-10T01:36:30;99671.91;;;1.01;100.00
74798;BME280;63326;45.088;7.658;2024-01-10T01:38:57;99668.75;;;0.96;100.00
74798;BME280;63326;45.088;7.658;2024-01-10T01:41:24;99705.81;;;1.22;100.00
74798;BME280;63326;45.088;7.658;2024-01-10T01:43:50;99675.72;;;0.97;100.00
74798;BME280;63326;45.088;7.658;2024-01-10T01:46:18;99704.63;;;1.13;100.00
74798;BME280;63326;45.088;7.658;2024-01-10T01:48:45;99744.47;;;1.37;100.00
74798;BME280;63326;45.088;7.658;2024-01-10T01:51:14;99724.22;;;1.23;100.00
74798;BME280;63326;45.088;7.658;2024-01-10T01:53:41;99765.97;;;1.45;100.00
74798;BME280;63326;45.088;7.658;2024-01-10T01:56:09;99713.22;;;1.17;100.00
74798;BME280;63326;45.088;7.658;2024-01-10T01:58:37;99718.19;;;1.21;100.00
74798;BME280;63326;45.088;7.658;2024-01-10T02:01:04;99699.31;;;1.13;100.00
74798;BME280;63326;45.088;7.658;2024-01-10T02:03:34;99710.34;;;1.20;100.00
74798;BME280;63326;45.088;7.658;2024-01-10T02:06:01;99696.06;;;1.10;100.00
74798;BME280;63326;45.088;7.658;2024-01-10T02:08:34;99707.19;;;1.15;100.00
74798;BME280;63326;45.088;7.658;2024-01-10T02:11:02;99744.47;;;1.37;100.00
74798;BME280;63326;45.088;7.658;2024-01-10T02:13:31;99678.38;;;0.97;100.00
74798;BME280;63326;45.088;7.658;2024-01-10T02:15:59;99745.63;;;1.33;100.00
74798;BME280;63326;45.088;7.658;2024-01-10T02:18:26;99718.63;;;1.15;100.00
74798;BME280;63326;45.088;7.658;2024-01-10T02:20:53;99690.25;;;1.05;100.00
74798;BME280;63326;45.088;7.658;2024-01-10T02:23:20;99701.34;;;1.10;100.00
74798;BME280;63326;45.088;7.658;2024-01-10T02:25:47;99675.72;;;0.97;100.00
74798;BME280;63326;45.088;7.658;2024-01-10T02:28:14;99686.94;;;1.01;100.00
74798;BME280;63326;45.088;7.658;2024-01-10T02:30:41;99669.84;;;0.80;100.00
74798;BME280;63326;45.088;7.658;2024-01-10T02:33:08;99672.75;;;0.89;100.00
74798;BME280;63326;45.088;7.658;2024-01-10T02:35:35;99711.81;;;1.11;100.00
74798;BME280;63326;45.088;7.658;2024-01-10T02:38:02;99670.09;;;0.89;100.00
74798;BME280;63326;45.088;7.658;2024-01-10T02:40:29;99770.22;;;1.48;100.00
74798;BME280;63326;45.088;7.658;2024-01-10T02:42:56;99691.09;;;1.05;100.00
74798;BME280;63326;45.088;7.658;2024-01-10T02:45:23;99714.06;;;1.17;100.00
74798;BME280;63326;45.088;7.658;2024-01-10T02:47:50;99700.38;;;1.11;100.00
74798;BME280;63326;45.088;7.658;2024-01-10T02:50:17;99650.94;;;0.86;100.00
74798;BME280;63326;45.088;7.658;2024-01-10T02:52:44;99691.72;;;1.09;100.00
74798;BME280;63326;45.088;7.658;2024-01-10T02:55:11;99755.59;;;1.42;100.00
74798;BME280;63326;45.088;7.658;2024-01-10T02:57:38;99756.31;;;1.44;100.00
74798;BME280;63326;45.088;7.658;2024-01-10T03:00:05;99734.19;;;1.33;100.00
74798;BME280;63326;45.088;7.658;2024-01-10T03:02:32;99705.06;;;1.07;100.00
74798;BME280;63326;45.088;7.658;2024-01-10T03:04:59;99718.69;;;1.14;100.00
74798;BME280;63326;45.088;7.658;2024-01-10T03:07:26;99727.19;;;1.19;100.00
74798;BME280;63326;45.088;7.658;2024-01-10T03:09:53;99631.31;;;0.63;100.00
74798;BME280;63326;45.088;7.658;2024-01-10T03:12:20;99652.81;;;0.71;100.00
74798;BME280;63326;45.088;7.658;2024-01-10T03:14:47;99735.97;;;1.19;100.00
74798;BME280;63326;45.088;7.658;2024-01-10T03:17:14;99745.50;;;1.35;100.00
74798;BME280;63326;45.088;7.658;2024-01-10T03:19:40;99683.88;;;0.94;100.00
74798;BME280;63326;45.088;7.658;2024-01-10T03:22:12;99686.19;;;0.99;100.00
74798;BME280;63326;45.088;7.658;2024-01-10T03:24:39;99668.94;;;0.93;100.00
74798;BME280;63326;45.088;7.658;2024-01-10T03:27:06;99730.41;;;1.37;100.00
74798;BME280;63326;45.088;7.658;2024-01-10T03:29:33;99701.13;;;1.13;100.00
74798;BME280;63326;45.088;7.658;2024-01-10T03:32:01;99733.88;;;1.37;100.00
74798;BME280;63326;45.088;7.658;2024-01-10T03:34:28;99643.41;;;0.80;100.00
74798;BME280;63326;45.088;7.658;2024-01-10T03:36:55;99676.34;;;1.01;100.00
74798;BME280;63326;45.088;7.658;2024-01-10T03:39:22;99626.47;;;0.69;100.00
74798;BME280;63326;45.088;7.658;2024-01-10T03:41:49;99653.69;;;0.84;100.00
74798;BME280;63326;45.088;7.658;2024-01-10T03:44:16;99703.25;;;1.08;100.00
74798;BME280;63326;45.088;7.658;2024-01-10T03:46:42;99689.06;;;0.96;100.00
74798;BME280;63326;45.088;7.658;2024-01-10T03:49:09;99741.50;;;1.29;100.00
74798;BME280;63326;45.088;7.658;2024-01-10T03:51:36;99635.75;;;0.62;100.00
74798;BME280;63326;45.088;7.658;2024-01-10T03:54:04;99668.63;;;0.85;100.00
74798;BME280;63326;45.088;7.658;2024-01-10T03:56:30;99664.59;;;0.92;100.00
74798;BME280;63326;45.088;7.658;2024-01-10T03:59:00;99683.41;;;0.88;100.00
74798;BME280;63326;45.088;7.658;2024-01-10T04:01:28;99706.41;;;1.00;100.00
74798;BME280;63326;45.088;7.658;2024-01-10T04:03:54;99647.09;;;0.64;100.00
74798;BME280;63326;45.088;7.658;2024-01-10T04:06:21;99680.31;;;0.81;100.00
74798;BME280;63326;45.088;7.658;2024-01-10T04:08:48;99613.84;;;0.48;100.00
74798;BME280;63326;45.088;7.658;2024-01-10T04:11:15;99646.78;;;0.69;100.00
74798;BME280;63326;45.088;7.658;2024-01-10T04:13:42;99736.06;;;1.18;100.00
74798;BME280;63326;45.088;7.658;2024-01-10T04:16:08;99693.03;;;0.89;100.00
74798;BME280;63326;45.088;7.658;2024-01-10T04:18:35;99643.44;;;0.53;100.00
74798;BME280;63326;45.088;7.658;2024-01-10T04:21:02;99662.63;;;0.69;100.00
74798;BME280;63326;45.088;7.658;2024-01-10T04:23:29;99675.25;;;0.78;100.00
74798;BME280;63326;45.088;7.658;2024-01-10T04:25:57;99648.13;;;0.62;100.00
74798;BME280;63326;45.088;7.658;2024-01-10T04:28:24;99738.72;;;1.18;100.00
74798;BME280;63326;45.088;7.658;2024-01-10T04:30:51;99692.31;;;0.87;100.00
74798;BME280;63326;45.088;7.658;2024-01-10T04:33:17;99637.03;;;0.57;100.00
74798;BME280;63326;45.088;7.658;2024-01-10T04:35:44;99693.53;;;0.81;100.00
74798;BME280;63326;45.088;7.658;2024-01-10T04:38:11;99703.13;;;0.96;100.00
74798;BME280;63326;45.088;7.658;2024-01-10T04:40:38;99712.44;;;1.02;100.00
74798;BME280;63326;45.088;7.658;2024-01-10T04:43:05;99693.38;;;0.84;100.00
74798;BME280;63326;45.088;7.658;2024-01-10T04:45:32;99672.59;;;0.78;100.00
74798;BME280;63326;45.088;7.658;2024-01-10T04:47:59;99688.06;;;0.84;100.00
74798;BME280;63326;45.088;7.658;2024-01-10T04:50:26;99675.16;;;0.80;100.00
74798;BME280;63326;45.088;7.658;2024-01-10T04:52:53;99643.91;;;0.59;100.00
74798;BME280;63326;45.088;7.658;2024-01-10T04:55:20;99659.59;;;0.75;100.00
74798;BME280;63326;45.088;7.658;2024-01-10T04:57:46;99638.09;;;0.67;100.00
74798;BME280;63326;45.088;7.658;2024-01-10T05:00:13;99669.34;;;0.87;100.00
74798;BME280;63326;45.088;7.658;2024-01-10T05:02:40;99646.31;;;0.62;100.00
74798;BME280;63326;45.088;7.658;2024-01-10T05:05:07;99717.44;;;1.07;100.00
74798;BME280;63326;45.088;7.658;2024-01-10T05:07:34;99665.19;;;0.70;100.00
74798;BME280;63326;45.088;7.658;2024-01-10T05:10:01;99645.16;;;0.54;100.00
74798;BME280;63326;45.088;7.658;2024-01-10T05:12:28;99652.88;;;0.57;100.00
74798;BME280;63326;45.088;7.658;2024-01-10T05:14:54;99693.53;;;0.81;100.00
74798;BME280;63326;45.088;7.658;2024-01-10T05:17:21;99681.69;;;0.74;100.00
74798;BME280;63326;45.088;7.658;2024-01-10T05:19:48;99708.19;;;0.99;100.00
74798;BME280;63326;45.088;7.658;2024-01-10T05:22:15;99655.34;;;0.72;100.00
74798;BME280;63326;45.088;7.658;2024-01-10T05:24:43;99691.13;;;0.91;100.00
74798;BME280;63326;45.088;7.658;2024-01-10T05:27:10;99678.97;;;0.88;100.00
74798;BME280;63326;45.088;7.658;2024-01-10T05:29:37;99728.38;;;1.27;100.00
74798;BME280;63326;45.088;7.658;2024-01-10T05:32:04;99680.16;;;0.84;100.00
74798;BME280;63326;45.088;7.658;2024-01-10T05:34:31;99652.50;;;0.76;100.00
74798;BME280;63326;45.088;7.658;2024-01-10T05:36:58;99652.63;;;0.74;100.00
74798;BME280;63326;45.088;7.658;2024-01-10T05:39:24;99694.13;;;0.99;100.00
74798;BME280;63326;45.088;7.658;2024-01-10T05:41:51;99737.78;;;1.31;100.00
74798;BME280;63326;45.088;7.658;2024-01-10T05:44:18;99673.91;;;0.85;100.00
74798;BME280;63326;45.088;7.658;2024-01-10T05:46:45;99764.91;;;1.48;100.00
74798;BME280;63326;45.088;7.658;2024-01-10T05:49:11;99720.72;;;1.23;100.00
74798;BME280;63326;45.088;7.658;2024-01-10T05:51:39;99752.19;;;1.40;100.00
74798;BME280;63326;45.088;7.658;2024-01-10T05:54:05;99768.94;;;1.53;100.00
74798;BME280;63326;45.088;7.658;2024-01-10T05:56:33;99758.06;;;1.58;100.00
74798;BME280;63326;45.088;7.658;2024-01-10T05:59:00;99699.16;;;1.16;100.00
74798;BME280;63326;45.088;7.658;2024-01-10T06:01:28;99667.34;;;1.03;100.00
74798;BME280;63326;45.088;7.658;2024-01-10T06:03:55;99766.72;;;1.60;100.00
74798;BME280;63326;45.088;7.658;2024-01-10T06:06:23;99699.03;;;1.18;100.00
74798;BME280;63326;45.088;7.658;2024-01-10T06:08:50;99736.19;;;1.29;100.00
74798;BME280;63326;45.088;7.658;2024-01-10T06:11:18;99771.78;;;1.50;100.00
74798;BME280;63326;45.088;7.658;2024-01-10T06:13:45;99730.28;;;1.25;100.00
74798;BME280;63326;45.088;7.658;2024-01-10T06:16:22;99714.91;;;1.30;100.00
74798;BME280;63326;45.088;7.658;2024-01-10T06:18:49;99748.09;;;1.49;100.00
74798;BME280;63326;45.088;7.658;2024-01-10T06:21:16;99759.81;;;1.45;100.00
74798;BME280;63326;45.088;7.658;2024-01-10T06:23:43;99701.13;;;1.00;100.00
74798;BME280;63326;45.088;7.658;2024-01-10T06:26:09;99706.97;;;1.05;100.00
74798;BME280;63326;45.088;7.658;2024-01-10T06:28:37;99733.81;;;1.12;100.00
74798;BME280;63326;45.088;7.658;2024-01-10T06:31:05;99773.16;;;1.43;100.00
74798;BME280;63326;45.088;7.658;2024-01-10T06:33:35;99722.41;;;1.11;100.00
74798;BME280;63326;45.088;7.658;2024-01-10T06:36:02;99700.25;;;0.99;100.00
74798;BME280;63326;45.088;7.658;2024-01-10T06:38:29;99775.81;;;1.43;100.00
74798;BME280;63326;45.088;7.658;2024-01-10T06:40:56;99634.97;;;0.75;100.00
74798;BME280;63326;45.088;7.658;2024-01-10T06:43:22;99713.34;;;1.28;100.00
74798;BME280;63326;45.088;7.658;2024-01-10T06:45:50;99694.69;;;1.17;100.00
74798;BME280;63326;45.088;7.658;2024-01-10T06:48:16;99707.19;;;1.15;100.00
74798;BME280;63326;45.088;7.658;2024-01-10T06:50:45;99706.31;;;1.14;100.00
74798;BME280;63326;45.088;7.658;2024-01-10T06:53:12;99782.06;;;1.42;100.00
74798;BME280;63326;45.088;7.658;2024-01-10T06:55:39;99693.53;;;0.81;100.00
74798;BME280;63326;45.088;7.658;2024-01-10T06:58:06;99758.81;;;1.20;100.00
74798;BME280;63326;45.088;7.658;2024-01-10T07:00:32;99701.31;;;0.84;100.00
74798;BME280;63326;45.088;7.658;2024-01-10T07:03:02;99738.38;;;1.10;100.00
74798;BME280;63326;45.088;7.658;2024-01-10T07:05:29;99784.91;;;1.39;100.00
74798;BME280;63326;45.088;7.658;2024-01-10T07:07:58;99741.88;;;1.10;100.00
74798;BME280;63326;45.088;7.658;2024-01-10T07:10:25;99729.34;;;0.99;100.00
74798;BME280;63326;45.088;7.658;2024-01-10T07:12:54;99789.88;;;1.31;100.00
74798;BME280;63326;45.088;7.658;2024-01-10T07:15:22;99801.97;;;1.35;100.00
74798;BME280;63326;45.088;7.658;2024-01-10T07:17:51;99756.78;;;1.11;100.00
74798;BME280;63326;45.088;7.658;2024-01-10T07:20:18;99747.06;;;1.12;100.00
74798;BME280;63326;45.088;7.658;2024-01-10T07:22:45;99795.16;;;1.31;100.00
74798;BME280;63326;45.088;7.658;2024-01-10T07:25:12;99805.03;;;1.42;100.00
74798;BME280;63326;45.088;7.658;2024-01-10T07:27:41;99784.78;;;1.28;100.00
74798;BME280;63326;45.088;7.658;2024-01-10T07:30:09;99798.16;;;1.39;100.00
74798;BME280;63326;45.088;7.658;2024-01-10T07:32:44;99757.44;;;1.15;100.00
74798;BME280;63326;45.088;7.658;2024-01-10T07:35:13;99738.88;;;1.02;100.00
74798;BME280;63326;45.088;7.658;2024-01-10T07:37:43;99731.91;;;1.01;100.00
74798;BME280;63326;45.088;7.658;2024-01-10T07:40:10;99805.38;;;1.50;100.00
74798;BME280;63326;45.088;7.658;2024-01-10T07:42:38;99834.59;;;1.61;100.00
74798;BME280;63326;45.088;7.658;2024-01-10T07:45:06;99770.50;;;1.30;100.00
74798;BME280;63326;45.088;7.658;2024-01-10T07:47:35;99825.31;;;1.68;100.00
74798;BME280;63326;45.088;7.658;2024-01-10T07:50:10;99744.41;;;1.12;100.00
74798;BME280;63326;45.088;7.658;2024-01-10T07:52:37;99803.56;;;1.50;100.00
74798;BME280;63326;45.088;7.658;2024-01-10T07:55:05;99818.41;;;1.66;100.00
74798;BME280;63326;45.088;7.658;2024-01-10T07:57:35;99765.94;;;1.33;100.00
74798;BME280;63326;45.088;7.658;2024-01-10T08:00:07;99647.00;;;0.66;100.00
74798;BME280;63326;45.088;7.658;2024-01-10T08:02:38;99646.38;;;0.75;100.00
74798;BME280;63326;45.088;7.658;2024-01-10T08:05:06;99677.63;;;0.95;100.00
74798;BME280;63326;45.088;7.658;2024-01-10T08:07:38;99690.66;;;1.24;100.00
74798;BME280;63326;45.088;7.658;2024-01-10T08:10:07;99774.25;;;1.66;100.00
74798;BME280;63326;45.088;7.658;2024-01-10T08:12:37;99649.38;;;0.96;100.00
74798;BME280;63326;45.088;7.658;2024-01-10T08:15:08;99847.16;;;2.23;100.00
74798;BME280;63326;45.088;7.658;2024-01-10T08:17:35;99735.91;;;1.72;100.00
74798;BME280;63326;45.088;7.658;2024-01-10T08:20:06;99857.53;;;2.51;100.00
74798;BME280;63326;45.088;7.658;2024-01-10T08:22:36;99803.81;;;2.24;100.00
74798;BME280;63326;45.088;7.658;2024-01-10T08:25:04;99816.19;;;2.36;100.00
74798;BME280;63326;45.088;7.658;2024-01-10T08:27:31;99855.91;;;2.74;100.00
74798;BME280;63326;45.088;7.658;2024-01-10T08:29:59;99849.88;;;2.72;100.00
74798;BME280;63326;45.088;7.658;2024-01-10T08:32:28;99749.59;;;1.78;100.00
74798;BME280;63326;45.088;7.658;2024-01-10T08:34:56;99868.69;;;2.31;100.00
74798;BME280;63326;45.088;7.658;2024-01-10T08:37:24;99751.06;;;1.57;100.00
74798;BME280;63326;45.088;7.658;2024-01-10T08:39:51;99812.94;;;2.20;100.00
74798;BME280;63326;45.088;7.658;2024-01-10T08:42:18;99802.97;;;1.85;100.00
74798;BME280;63326;45.088;7.658;2024-01-10T08:44:45;99767.28;;;1.78;100.00
74798;BME280;63326;45.088;7.658;2024-01-10T08:47:16;99674.66;;;1.13;100.00
74798;BME280;63326;45.088;7.658;2024-01-10T08:49:43;99770.53;;;1.81;100.00
74798;BME280;63326;45.088;7.658;2024-01-10T08:52:11;99749.78;;;1.88;100.00
74798;BME280;63326;45.088;7.658;2024-01-10T08:54:40;99718.53;;;1.80;100.00
74798;BME280;63326;45.088;7.658;2024-01-10T08:57:07;99772.84;;;2.24;100.00
74798;BME280;63326;45.088;7.658;2024-01-10T08:59:34;99766.38;;;2.28;100.00
74798;BME280;63326;45.088;7.658;2024-01-10T09:02:01;99693.22;;;1.89;100.00
74798;BME280;63326;45.088;7.658;2024-01-10T09:04:30;99760.31;;;2.39;100.00
74798;BME280;63326;45.088;7.658;2024-01-10T09:06:59;99895.41;;;3.02;100.00
74798;BME280;63326;45.088;7.658;2024-01-10T09:09:26;99741.97;;;1.86;100.00
74798;BME280;63326;45.088;7.658;2024-01-10T09:11:54;99897.22;;;3.02;100.00
74798;BME280;63326;45.088;7.658;2024-01-10T09:14:24;99813.13;;;2.42;100.00
74798;BME280;63326;45.088;7.658;2024-01-10T09:16:50;99870.97;;;2.73;100.00
74798;BME280;63326;45.088;7.658;2024-01-10T09:19:19;99900.09;;;2.99;100.00
74798;BME280;63326;45.088;7.658;2024-01-10T09:21:46;99837.88;;;2.79;100.00
74798;BME280;63326;45.088;7.658;2024-01-10T09:24:13;99851.22;;;2.78;100.00
74798;BME280;63326;45.088;7.658;2024-01-10T09:26:54;99784.25;;;2.50;100.00
74798;BME280;63326;45.088;7.658;2024-01-10T09:29:21;99803.88;;;2.35;100.00
74798;BME280;63326;45.088;7.658;2024-01-10T09:31:48;99790.56;;;1.85;100.00
74798;BME280;63326;45.088;7.658;2024-01-10T09:34:15;99828.38;;;2.26;100.00
74798;BME280;63326;45.088;7.658;2024-01-10T09:36:43;99904.47;;;2.87;100.00
74798;BME280;63326;45.088;7.658;2024-01-10T09:39:10;99917.06;;;2.96;100.00
74798;BME280;63326;45.088;7.658;2024-01-10T09:41:46;99789.25;;;2.42;100.00
74798;BME280;63326;45.088;7.658;2024-01-10T09:44:20;99759.13;;;2.43;100.00
74798;BME280;63326;45.088;7.658;2024-01-10T09:46:53;99713.25;;;1.80;100.00
74798;BME280;63326;45.088;7.658;2024-01-10T09:49:21;99897.72;;;2.70;100.00
74798;BME280;63326;45.088;7.658;2024-01-10T09:51:49;99825.22;;;2.21;100.00
74798;BME280;63326;45.088;7.658;2024-01-10T09:54:17;99910.03;;;2.59;100.00
74798;BME280;63326;45.088;7.658;2024-01-10T09:56:47;99830.81;;;2.16;100.00
74798;BME280;63326;45.088;7.658;2024-01-10T09:59:14;99791.94;;;1.91;100.00
74798;BME280;63326;45.088;7.658;2024-01-10T10:01:42;99913.25;;;2.88;100.00
74798;BME280;63326;45.088;7.658;2024-01-10T10:04:12;99824.16;;;2.10;100.00
74798;BME280;63326;45.088;7.658;2024-01-10T10:06:39;99751.28;;;1.79;100.00
74798;BME280;63326;45.088;7.658;2024-01-10T10:09:07;99812.63;;;2.11;99.67
74798;BME280;63326;45.088;7.658;2024-01-10T10:11:36;99846.63;;;2.30;100.00
74798;BME280;63326;45.088;7.658;2024-01-10T10:14:17;99841.75;;;2.24;100.00
74798;BME280;63326;45.088;7.658;2024-01-10T10:16:45;99803.41;;;2.17;100.00
74798;BME280;63326;45.088;7.658;2024-01-10T10:19:12;99758.56;;;1.76;98.70
74798;BME280;63326;45.088;7.658;2024-01-10T10:21:50;99772.03;;;1.98;99.15
74798;BME280;63326;45.088;7.658;2024-01-10T10:24:17;99924.44;;;2.67;97.85
74798;BME280;63326;45.088;7.658;2024-01-10T10:26:47;99749.88;;;1.61;100.00
74798;BME280;63326;45.088;7.658;2024-01-10T10:29:17;99765.34;;;1.54;99.96
74798;BME280;63326;45.088;7.658;2024-01-10T10:31:47;99797.78;;;1.71;100.00
74798;BME280;63326;45.088;7.658;2024-01-10T10:34:20;99757.09;;;1.72;100.00
74798;BME280;63326;45.088;7.658;2024-01-10T10:36:49;99755.06;;;1.63;99.13
74798;BME280;63326;45.088;7.658;2024-01-10T10:39:17;99696.91;;;1.10;100.00
74798;BME280;63326;45.088;7.658;2024-01-10T10:41:47;99924.97;;;2.72;100.00
74798;BME280;63326;45.088;7.658;2024-01-10T10:44:18;99750.63;;;1.63;99.46
74798;BME280;63326;45.088;7.658;2024-01-10T10:46:49;99709.44;;;1.46;100.00
74798;BME280;63326;45.088;7.658;2024-01-10T10:49:28;99910.72;;;2.86;100.00
74798;BME280;63326;45.088;7.658;2024-01-10T10:51:59;99831.66;;;2.42;100.00
74798;BME280;63326;45.088;7.658;2024-01-10T10:54:28;99903.78;;;3.09;100.00
74798;BME280;63326;45.088;7.658;2024-01-10T10:56:57;99814.38;;;2.49;100.00
74798;BME280;63326;45.088;7.658;2024-01-10T10:59:27;99785.34;;;2.47;100.00
74798;BME280;63326;45.088;7.658;2024-01-10T11:01:56;99817.66;;;2.89;100.00
74798;BME280;63326;45.088;7.658;2024-01-10T11:04:23;99856.22;;;3.06;100.00
74798;BME280;63326;45.088;7.658;2024-01-10T11:06:50;99824.66;;;2.90;99.88
74798;BME280;63326;45.088;7.658;2024-01-10T11:09:18;99826.59;;;2.88;98.96
74798;BME280;63326;45.088;7.658;2024-01-10T11:15:01;99832.72;;;2.52;99.45
74798;BME280;63326;45.088;7.658;2024-01-10T11:18:07;99772.88;;;2.11;96.01
74798;BME280;63326;45.088;7.658;2024-01-10T11:23:38;99808.81;;;2.65;96.31
74798;BME280;63326;45.088;7.658;2024-01-10T11:26:07;99733.81;;;2.26;94.35
74798;BME280;63326;45.088;7.658;2024-01-10T11:28:38;99834.94;;;2.95;91.70
74798;BME280;63326;45.088;7.658;2024-01-10T11:31:07;99888.06;;;3.43;90.52
74798;BME280;63326;45.088;7.658;2024-01-10T11:33:36;99888.09;;;3.54;90.14
74798;BME280;63326;45.088;7.658;2024-01-10T11:36:14;99888.00;;;3.55;89.63
74798;BME280;63326;45.088;7.658;2024-01-10T11:38:49;99872.66;;;3.59;88.80
74798;BME280;63326;45.088;7.658;2024-01-10T11:46:49;99811.00;;;2.34;94.30
74798;BME280;63326;45.088;7.658;2024-01-10T11:49:17;99856.56;;;2.52;93.55
74798;BME280;63326;45.088;7.658;2024-01-10T11:51:48;99813.75;;;2.33;94.07
74798;BME280;63326;45.088;7.658;2024-01-10T11:54:42;99849.03;;;2.71;94.55
74798;BME280;63326;45.088;7.658;2024-01-10T11:57:25;99784.63;;;2.69;93.87
74798;BME280;63326;45.088;7.658;2024-01-10T11:59:57;99823.72;;;3.15;92.55
74798;BME280;63326;45.088;7.658;2024-01-10T12:02:27;99775.28;;;3.00;90.90
74798;BME280;63326;45.088;7.658;2024-01-10T12:04:55;99847.59;;;3.63;92.08
74798;BME280;63326;45.088;7.658;2024-01-10T12:07:22;99870.25;;;3.91;90.60
74798;BME280;63326;45.088;7.658;2024-01-10T12:09:51;99736.59;;;2.61;88.70
74798;BME280;63326;45.088;7.658;2024-01-10T12:12:18;99791.16;;;2.40;93.82
74798;BME280;63326;45.088;7.658;2024-01-10T12:14:45;99741.47;;;2.31;94.95
74798;BME280;63326;45.088;7.658;2024-01-10T12:17:13;99714.56;;;2.11;95.59
74798;BME280;63326;45.088;7.658;2024-01-10T12:19:41;99755.72;;;2.78;95.27
74798;BME280;63326;45.088;7.658;2024-01-10T12:22:13;99733.09;;;2.61;90.92
74798;BME280;63326;45.088;7.658;2024-01-10T12:24:44;99719.84;;;2.24;93.71
74798;BME280;63326;45.088;7.658;2024-01-10T12:27:19;99774.94;;;2.44;93.25
74798;BME280;63326;45.088;7.658;2024-01-10T12:29:52;99769.47;;;2.22;97.20
74798;BME280;63326;45.088;7.658;2024-01-10T12:32:21;99721.13;;;2.18;97.86
74798;BME280;63326;45.088;7.658;2024-01-10T12:34:59;99859.97;;;3.03;95.92
74798;BME280;63326;45.088;7.658;2024-01-10T12:37:30;99782.94;;;2.68;96.95
74798;BME280;63326;45.088;7.658;2024-01-10T12:39:57;99644.53;;;1.66;94.64
74798;BME280;63326;45.088;7.658;2024-01-10T12:42:24;99658.63;;;2.03;93.59
74798;BME280;63326;45.088;7.658;2024-01-10T12:44:52;99643.84;;;1.88;90.37
74798;BME280;63326;45.088;7.658;2024-01-10T12:47:21;99868.28;;;3.23;93.56
74798;BME280;63326;45.088;7.658;2024-01-10T12:49:48;99773.97;;;3.06;93.66
74798;BME280;63326;45.088;7.658;2024-01-10T12:52:16;99657.00;;;2.50;92.33
74798;BME280;63326;45.088;7.658;2024-01-10T12:54:47;99799.09;;;2.89;94.48
74798;BME280;63326;45.088;7.658;2024-01-10T12:57:15;99658.66;;;1.91;96.20
74798;BME280;63326;45.088;7.658;2024-01-10T12:59:42;99702.41;;;1.96;94.47
74798;BME280;63326;45.088;7.658;2024-01-10T13:02:09;99614.03;;;1.48;96.30
74798;BME280;63326;45.088;7.658;2024-01-10T13:04:36;99671.03;;;2.03;96.28
74798;BME280;63326;45.088;7.658;2024-01-10T13:07:03;99784.13;;;3.12;97.72
74798;BME280;63326;45.088;7.658;2024-01-10T13:09:30;99658.44;;;2.54;96.84
74798;BME280;63326;45.088;7.658;2024-01-10T13:11:59;99717.78;;;3.12;94.08
74798;BME280;63326;45.088;7.658;2024-01-10T13:14:26;99661.47;;;2.85;93.25
74798;BME280;63326;45.088;7.658;2024-01-10T13:16:56;99628.38;;;2.66;93.66
74798;BME280;63326;45.088;7.658;2024-01-10T13:19:26;99767.00;;;3.40;93.09